Domov               UVHVVR             MKGP            O straneh              
ZDRAVSTVENO VARSTVO RASTLIN
  MREŽA AGROMET. POSTAJ
 ► PROGNOSTIČNA OBVESTILA
AGROMETEOROLOŠKI PODATKI -
ARSO
OBVLADOVANJE TVEGANJ ZARADI
NEUGODNIH VREMENSKIH RAZMER
  ► NARAVNE NESREČE
  ► SUŠA/MOČA
  ► NAMAKANJE
  ► ŽLED (gozdarstvo)
KARTOGRAFSKI PRIKAZI
SPLETNE POVEZAVE
PROJEKTI IN PUBLIKACIJE

AGROMETEOROLOŠKA MREŽA: VREMENSKE POSTAJE IN FENOLOŠKA OPAZOVANJA

Pregled podatkov za lokacijo Selo, meteorološka postaja 37838

Pregled senzorjev na lokaciji

ID Ime Zadnja
vrednost
Datum
zadnje
spremembe
Tip
senzorja
4044 Omočenost lista (U) 0 U 19.7.2018 05:30 A730WET
4045 Padavine (mm) 0 mm 19.7.2018 05:30 Rain-O-Matic
4047 Relativna vlaga 2 m (% RH) 58,83 % RH 19.7.2018 05:30 50YA
4046 Temperatura 2 m (°C) 20,42 °C 19.7.2018 05:30 50YA

Pregled podatkov zadnjih 24 ur

Zap.
št.
Datum in čas Selo
Omočenost
lista
Padavine Relativna
vlaga
2
m
Temperatura
2
m
1 19.7.2018 05:30
2 19.7.2018 05:00
3 19.7.2018 04:30 0 0 58,8 20,5
4 19.7.2018 04:00 0 0 59,7 20,4
5 19.7.2018 03:30 0 0 61,1 20,2
6 19.7.2018 03:00 0 0 63 19,8
7 19.7.2018 02:30 0 0 64,2 19,7
8 19.7.2018 02:00 0 0 63,3 20
9 19.7.2018 01:30 0 0 63,5 20,1
10 19.7.2018 01:00 0 0 64,9 19,9
11 19.7.2018 00:30 0 0 65,9 19,9
12 19.7.2018 00:00 0 0 66,8 19,8
13 18.7.2018 23:30 0 0 67,5 19,8
14 18.7.2018 23:00 0 0 66,6 19,9
15 18.7.2018 22:30 0 0 68,1 19,7
16 18.7.2018 22:00 0 0 69,2 19,7
17 18.7.2018 21:30 0 0 69,1 19,8
18 18.7.2018 21:00 0 0 66,8 20,1
19 18.7.2018 20:30 0 0 64,5 20,5
20 18.7.2018 20:00 0 0 62,5 20,8
21 18.7.2018 19:30 0 0 60,8 21,3
22 18.7.2018 19:00 0 0 57,9 22
23 18.7.2018 18:30 0 0 54,5 22,8
24 18.7.2018 18:00 0 0 50,9 23,6
25 18.7.2018 17:30 0 0 40,1 26,5
26 18.7.2018 17:00 0 0 30,8 28,2
27 18.7.2018 16:30 0 0 30,3 28,1
28 18.7.2018 16:00 0 0 29,3 28,9
29 18.7.2018 15:30 0 0 28,7 28,4
30 18.7.2018 15:00 0 0 28,5 28,6
31 18.7.2018 14:30 0 0 28,1 28,5
32 18.7.2018 14:00 0 0 28,7 28,4
33 18.7.2018 13:30 0 0 30,6 28,2
34 18.7.2018 13:00 0 0 31,3 28,5
35 18.7.2018 12:30 0 0 32,4 28,3
36 18.7.2018 12:00 0 0 33,7 27,6
37 18.7.2018 11:30 0 0 35,1 27,4
38 18.7.2018 11:00 0 0 35,6 27,1
39 18.7.2018 10:30 0 0 35,2 26,8
40 18.7.2018 10:00 0 0 35,4 26,5
41 18.7.2018 09:30 0 0 35,6 26,1
42 18.7.2018 09:00 0 0 39,4 25,6
43 18.7.2018 08:30 0 0 42,9 24,8
44 18.7.2018 08:00 0 0 43,4 24
45 18.7.2018 07:30 0 0 45,9 23,1
46 18.7.2018 07:00 0 0 49,3 22
47 18.7.2018 06:30 0 0 50,6 20,9
48 18.7.2018 06:00 0 0 46,1 21,3
© 2011 Ministrstvo za kmetijstvo, gozdarstvo in prehrano. Vse pravice pridržane.